Gahanna, OH

2:35 AM EDT on August 28, 2015 (GMT -0400)
Greens @ Clarenton | | Change Station
CLOSE
Current Station
Personal Weather Station
Location: New Albany, OH
Elevation: 1004 ft
Nearby Weather Stations

Elev 1004 ft 40.05 °N, 82.82 °W | Updated 9 seconds ago

Clear
Clear
58.1 °F
Feels Like 58.1 °F
N
1.1
Wind Variable Wind from East
Gusts 4.0 mph

Today
High -- | Low -- °F
--% Chance of Precip.
Yesterday
High -- | Low -- °F
Precip. -- in
6:55 AM 8:09 PM
Waxing Gibbous, 97% visible
Pressure 30.14 in
Visibility 10.0 miles
Clouds Clear
Dew Point 56 °F
Humidity 93%
Rainfall 0.00 in
Snow Depth Not available.
UV 0 out of 12
Pollen 9.90 out of 12
Air Quality Not available.
Flu Activity Not available.
METAR KCMH 280551Z 08004KT 10SM CLR 15/13 A3015 RMK AO2 SLP207 T01500128 10217 20144 58005
Pressure 30.14 in
Visibility 10.0 miles
Clouds Clear
Dew Point 56 °F
Humidity 93%
Rainfall 0.00 in
Snow Depth Not available.
UV 0 out of 12
Pollen 9.90 out of 12
Air Quality Not available.
Flu Activity Not available.
METAR KCMH 280551Z 08004KT 10SM CLR 15/13 A3015 RMK AO2 SLP207 T01500128 10217 20144 58005

10-Day Weather Forecast

×

Almanac

Astronomy

Aug. 28, 2015 Rise Set
Actual Time
Civil Twilight
Nautical Twilight
Astronomical Twilight
Moon
Length of Visible Light
Length of Day
Tomorrow will be .
, % of the Moon is Illuminated

Today's Extremes

State Highs State Lows

Community

WunderPhotos

Upload Photos

1,850,341 photos uploaded!

WunderBlogs® & News

Nearby

Air Quality

  Air Quality AQ Index Pollutant
Not available.

Snow Depth

Station Depth Elevation

Earthquake Activity

City Distance Mag. Time & Date
Minimum magnitude displayed is 2.5.

Coastal Water Temperatures

Place Temperature

Stations

Nearby Weather Stations

Station Location Temp. Windchill Dew Point Humidity Wind Precip. Elev Updated Type